Hauptseite
Satellitenwetter 10-Tage PrognosenKlimaSeewetter Wirbelstürme Blitz FlughäfenFAQ Newsletter Über uns
Wetter : Europa Afrika Nordamerika Südamerika Asien Australien-Ozeanien Andere
Sprachen Kontakt

Innsbruck, Österreich

Flughafen Innsbruck

Breite: 47-16N, Länge: 011-21E, Höhe: 581 m


METAR: LOWI 282350Z AUTO VRB01KT 9999 NCD 18/15 Q1024
TAF: LOWI 282315Z 2900/2924 VRB02KT CAVOK TX33/2914Z TN15/2904Z BECMG 2909/2911 10008KT 9999 FEW070 BECMG 2919/2921 28004KT

Zeit: 02:12 (00:12 UTC)

Beobachtung

Neuester Wetterbericht von vor 22 Minuten, um 23:50 UTC
Wind 1 kt aus unterschiedlichen Richtungen
Temperatur 18°C
Luftfeuchtigkeit 83%
Luftdruck 1024 hPa
Sichtweite 10 km oder mehr

Maßeinheiten ändern

Prognose

Neuester Wetterbericht von vor 57 Minuten, um 23:15 UTC
Gültige Prognose vom 29 um 00 UTC bis 29 um 24 UTC
Wind 2 kt aus unterschiedlichen Richtungen
Sichtweite 10 km oder mehr
keine Wolken unter 1500 m und keine Kumulonimbus oder Gewitterwolken
Übergehend zu
vom 29 um 09 UTC bis 29 um 11 UTC
Wind 8 kt aus Ost
Sichtweite 10 km oder mehr
Leicht bewölkt in der Höhe von 7000 ft
Übergehend zu
vom 29 um 19 UTC bis 29 um 21 UTC
Wind 4 kt aus West
Die Angaben auf diesen Webseiten unterliegen einer Erklärung über den Haftungsausschluss
Wetter : Europa Afrika Nordamerika Südamerika Asien Australien-Ozeanien Andere
Satellitenwetter 10-Tage PrognosenKlimaSeewetter Wirbelstürme Blitz FlughäfenFAQ Sprachen Kontakt Newsletter Über uns